createdAt,value
2023-03-06T00:00:22.920Z,1.63
2023-03-06T00:02:52.180Z,1.65
2023-03-06T00:05:20.380Z,1.65
2023-03-06T00:07:48.456Z,1.66
2023-03-06T00:10:19.748Z,1.62
2023-03-06T00:12:47.470Z,1.64
2023-03-06T00:15:15.633Z,1.64
2023-03-06T00:17:43.388Z,1.65
2023-03-06T00:20:12.686Z,1.64
2023-03-06T00:22:40.984Z,1.63
2023-03-06T00:25:13.188Z,1.58
2023-03-06T00:27:42.855Z,1.60
2023-03-06T00:30:13.997Z,1.60
2023-03-06T00:32:43.641Z,1.61
2023-03-06T00:35:11.954Z,1.60
2023-03-06T00:37:40.360Z,1.59
2023-03-06T00:40:09.924Z,1.59
2023-03-06T00:42:37.721Z,1.60
2023-03-06T00:45:08.136Z,1.56
2023-03-06T00:47:35.872Z,1.55
2023-03-06T00:50:03.741Z,1.52
2023-03-06T00:52:31.710Z,1.50
2023-03-06T00:54:59.490Z,1.51
2023-03-06T00:57:27.223Z,1.51
2023-03-06T00:59:55.014Z,1.50
2023-03-06T01:02:26.772Z,1.50
2023-03-06T01:04:55.537Z,1.46
2023-03-06T01:07:23.394Z,1.47
2023-03-06T01:09:51.760Z,1.49
2023-03-06T01:12:20.911Z,1.47
2023-03-06T01:14:52.628Z,1.47
2023-03-06T01:17:20.438Z,1.46
2023-03-06T01:19:49.515Z,1.46
2023-03-06T01:22:17.222Z,1.44
2023-03-06T01:24:44.957Z,1.42
2023-03-06T01:27:12.714Z,1.40
2023-03-06T01:29:40.409Z,1.39
2023-03-06T01:32:08.792Z,1.41
2023-03-06T01:34:36.481Z,1.42
2023-03-06T01:37:05.591Z,1.42
2023-03-06T01:39:33.322Z,1.38
2023-03-06T01:42:01.037Z,1.38
2023-03-06T01:44:30.036Z,1.33
2023-03-06T01:46:57.762Z,1.30
2023-03-06T01:49:32.316Z,1.32
2023-03-06T01:52:09.951Z,1.32
2023-03-06T01:54:42.964Z,1.32
2023-03-06T01:57:14.036Z,1.28
2023-03-06T01:59:43.953Z,1.26
2023-03-06T02:02:13.666Z,1.29
2023-03-06T02:04:44.116Z,1.32
2023-03-06T02:07:12.423Z,1.24
2023-03-06T02:09:41.552Z,1.21
2023-03-06T02:12:12.489Z,1.15
2023-03-06T02:14:41.077Z,1.17
2023-03-06T02:17:11.568Z,1.14
2023-03-06T02:19:51.209Z,1.14
2023-03-06T02:22:20.759Z,1.13
2023-03-06T02:24:56.014Z,1.14
2023-03-06T02:27:26.925Z,1.17
2023-03-06T02:29:56.536Z,1.17
2023-03-06T02:32:24.318Z,1.14
2023-03-06T02:34:58.845Z,1.12
2023-03-06T02:37:33.916Z,1.16
2023-03-06T02:40:10.265Z,1.14
2023-03-06T02:42:39.382Z,1.14
2023-03-06T02:45:11.766Z,1.24
2023-03-06T02:47:40.592Z,1.22
2023-03-06T02:50:09.495Z,1.16
2023-03-06T02:52:37.184Z,1.16
2023-03-06T02:55:05.843Z,1.17
2023-03-06T02:57:33.612Z,1.19
2023-03-06T03:00:03.133Z,1.19
2023-03-06T03:02:30.870Z,1.19
2023-03-06T03:04:59.384Z,1.17
2023-03-06T03:07:27.554Z,1.17
2023-03-06T03:09:55.961Z,1.15
2023-03-06T03:12:24.342Z,1.18
2023-03-06T03:14:53.073Z,1.13
2023-03-06T03:17:22.243Z,1.12
2023-03-06T03:19:50.281Z,1.11
2023-03-06T03:22:19.201Z,1.12
2023-03-06T03:24:47.105Z,1.14
2023-03-06T03:27:15.477Z,1.16
2023-03-06T03:29:46.389Z,1.20
2023-03-06T03:32:14.310Z,1.22
2023-03-06T03:34:44.663Z,1.21
2023-03-06T03:37:13.508Z,1.21
2023-03-06T03:39:43.125Z,1.22
2023-03-06T03:42:11.522Z,1.20
2023-03-06T03:44:39.645Z,1.23
2023-03-06T03:47:08.071Z,1.21
2023-03-06T03:49:38.838Z,1.28
2023-03-06T03:52:08.208Z,1.30
2023-03-06T03:54:37.244Z,1.31
2023-03-06T03:57:05.248Z,1.31
2023-03-06T03:59:36.425Z,1.31
2023-03-06T04:02:16.977Z,1.31
2023-03-06T04:04:56.708Z,1.30
2023-03-06T04:07:25.850Z,1.26
2023-03-06T04:09:54.820Z,1.28
2023-03-06T04:12:22.769Z,1.29
2023-03-06T04:14:50.568Z,1.29
2023-03-06T04:17:18.729Z,1.27
2023-03-06T04:19:46.603Z,1.24
2023-03-06T04:22:15.042Z,1.24
2023-03-06T04:24:45.570Z,1.28
2023-03-06T04:27:13.329Z,1.28
2023-03-06T04:29:41.091Z,1.27
2023-03-06T04:32:09.185Z,1.30
2023-03-06T04:34:37.202Z,1.26
2023-03-06T04:37:05.282Z,1.26
2023-03-06T04:39:33.097Z,1.25
2023-03-06T04:42:02.241Z,1.24
2023-03-06T04:44:29.960Z,1.24
2023-03-06T04:46:57.638Z,1.25
2023-03-06T04:49:25.353Z,1.15
2023-03-06T04:51:53.049Z,1.16
2023-03-06T04:54:20.814Z,1.16
2023-03-06T04:56:48.553Z,1.16
2023-03-06T04:59:20.050Z,1.14
2023-03-06T05:01:47.834Z,1.19
2023-03-06T05:04:15.634Z,1.17
2023-03-06T05:06:43.320Z,1.17
2023-03-06T05:09:12.680Z,1.22
2023-03-06T05:11:40.346Z,1.18
2023-03-06T05:14:08.040Z,1.17
2023-03-06T05:16:37.230Z,1.16
2023-03-06T05:19:05.033Z,1.19
2023-03-06T05:21:32.756Z,1.18
2023-03-06T05:24:00.479Z,1.20
2023-03-06T05:26:28.217Z,1.18
2023-03-06T05:28:56.246Z,1.16
2023-03-06T05:31:25.537Z,1.18
2023-03-06T05:33:54.652Z,1.18
2023-03-06T05:36:23.565Z,1.16
2023-03-06T05:38:51.384Z,1.14
2023-03-06T05:41:19.133Z,1.14
2023-03-06T05:43:46.824Z,1.08
2023-03-06T05:46:14.812Z,1.09
2023-03-06T05:48:42.557Z,1.11
2023-03-06T05:51:12.110Z,1.08
2023-03-06T05:53:39.802Z,1.07
2023-03-06T05:56:09.811Z,1.06
2023-03-06T05:58:38.241Z,1.02
2023-03-06T06:01:10.344Z,1.00
2023-03-06T06:03:38.510Z,1.02
2023-03-06T06:06:07.240Z,1.06
2023-03-06T06:08:36.682Z,1.07
2023-03-06T06:11:05.849Z,1.07
2023-03-06T06:13:33.754Z,1.07
2023-03-06T06:16:01.596Z,1.04
2023-03-06T06:18:29.383Z,1.05
2023-03-06T06:20:57.065Z,1.07
2023-03-06T06:23:24.727Z,1.12
2023-03-06T06:25:53.748Z,1.15
2023-03-06T06:28:21.414Z,1.21
2023-03-06T06:30:51.262Z,1.24
2023-03-06T06:33:18.974Z,1.31
2023-03-06T06:35:49.244Z,1.37
2023-03-06T06:38:17.442Z,1.39
2023-03-06T06:40:53.986Z,1.44
2023-03-06T06:43:34.009Z,1.45
2023-03-06T06:46:23.066Z,1.42
2023-03-06T06:48:52.465Z,1.44
2023-03-06T06:51:20.283Z,1.48
2023-03-06T06:53:48.048Z,1.49
2023-03-06T06:56:15.732Z,1.53
2023-03-06T06:58:44.868Z,1.56
2023-03-06T07:01:14.220Z,1.54
2023-03-06T07:03:42.191Z,1.59
2023-03-06T07:06:11.323Z,1.63
2023-03-06T07:08:41.283Z,1.65
2023-03-06T07:11:12.079Z,1.68
2023-03-06T07:13:39.813Z,1.74
2023-03-06T07:16:09.373Z,1.82
2023-03-06T07:18:37.450Z,1.83
2023-03-06T07:21:05.754Z,1.84
2023-03-06T07:23:33.527Z,1.87
2023-03-06T07:26:01.397Z,1.83
2023-03-06T07:28:29.201Z,1.84
2023-03-06T07:30:57.072Z,1.87
2023-03-06T07:33:26.418Z,1.93
2023-03-06T07:35:57.313Z,1.99
2023-03-06T07:38:25.058Z,2.01
2023-03-06T07:40:53.784Z,2.07
2023-03-06T07:43:21.505Z,2.14
2023-03-06T07:46:05.606Z,2.21
2023-03-06T07:48:43.127Z,2.30
2023-03-06T07:51:16.226Z,2.34
2023-03-06T07:53:44.741Z,2.39
2023-03-06T07:56:13.028Z,2.41
2023-03-06T07:58:42.421Z,2.39
2023-03-06T08:01:14.280Z,2.46
2023-03-06T08:03:43.974Z,2.47
2023-03-06T08:06:14.178Z,2.53
2023-03-06T08:08:44.391Z,2.59
2023-03-06T08:11:13.935Z,2.62
2023-03-06T08:13:41.984Z,2.60
2023-03-06T08:16:10.240Z,2.63
2023-03-06T08:18:39.596Z,2.64
2023-03-06T08:21:10.465Z,2.65
2023-03-06T08:23:38.784Z,2.64
2023-03-06T08:26:10.050Z,2.70
2023-03-06T08:28:37.758Z,2.76
2023-03-06T08:31:09.953Z,2.74
2023-03-06T08:33:38.412Z,2.82
2023-03-06T08:36:08.323Z,2.80
2023-03-06T08:38:36.026Z,2.81
2023-03-06T08:41:04.111Z,2.70
2023-03-06T08:43:31.845Z,2.62
2023-03-06T08:46:00.223Z,2.54
2023-03-06T08:48:28.124Z,2.54
2023-03-06T08:50:55.963Z,2.58
2023-03-06T08:53:41.794Z,2.72
2023-03-06T08:56:16.766Z,2.75
2023-03-06T08:58:44.615Z,2.83
2023-03-06T09:01:15.025Z,2.93
2023-03-06T09:03:42.810Z,3.03
2023-03-06T09:06:10.604Z,2.97
2023-03-06T09:08:42.927Z,2.92
2023-03-06T09:11:11.358Z,2.99
2023-03-06T09:13:39.128Z,2.95
2023-03-06T09:16:07.757Z,2.99
2023-03-06T09:18:35.654Z,2.96
2023-03-06T09:21:03.997Z,3.06
2023-03-06T09:23:32.070Z,3.03
2023-03-06T09:26:02.511Z,2.94
2023-03-06T09:28:30.374Z,2.97
2023-03-06T09:30:58.402Z,2.96
2023-03-06T09:33:26.252Z,2.98
2023-03-06T09:35:56.138Z,2.99
2023-03-06T09:38:26.548Z,3.12
2023-03-06T09:41:04.189Z,3.13
2023-03-06T09:43:35.423Z,3.26
2023-03-06T09:46:08.469Z,3.41
2023-03-06T09:48:46.453Z,3.36
2023-03-06T09:51:17.348Z,3.34
2023-03-06T09:53:57.825Z,3.37
2023-03-06T09:56:31.015Z,3.32
2023-03-06T09:59:06.010Z,3.47
2023-03-06T10:01:38.325Z,3.57
2023-03-06T10:04:12.561Z,3.47
2023-03-06T10:06:48.470Z,3.51
2023-03-06T10:09:21.123Z,3.54
2023-03-06T10:11:57.435Z,3.78
2023-03-06T10:14:32.717Z,3.87
2023-03-06T10:17:01.619Z,3.84
2023-03-06T10:19:34.649Z,3.87
2023-03-06T10:22:07.693Z,3.82
2023-03-06T10:24:52.132Z,3.82
2023-03-06T10:27:36.960Z,3.97
2023-03-06T10:30:27.759Z,3.98
2023-03-06T10:33:02.114Z,4.07
2023-03-06T10:35:33.267Z,3.90
2023-03-06T10:38:06.256Z,3.98
2023-03-06T10:40:46.206Z,4.01
2023-03-06T10:43:15.378Z,4.12
2023-03-06T10:45:49.689Z,4.12
2023-03-06T10:48:24.000Z,4.40
2023-03-06T10:50:53.286Z,4.39
2023-03-06T10:53:23.809Z,4.48
2023-03-06T10:55:53.883Z,4.67
2023-03-06T10:58:26.551Z,4.80
2023-03-06T11:01:19.380Z,4.77
2023-03-06T11:03:47.693Z,4.53
2023-03-06T11:06:31.410Z,4.55
2023-03-06T11:09:16.461Z,4.61
2023-03-06T11:11:44.190Z,4.65
2023-03-06T11:14:19.453Z,4.73
2023-03-06T11:16:52.984Z,4.74
2023-03-06T11:19:24.539Z,4.79
2023-03-06T11:22:03.749Z,4.97
2023-03-06T11:24:39.939Z,5.05
2023-03-06T11:27:22.159Z,4.89
2023-03-06T11:29:52.627Z,4.94
2023-03-06T11:32:22.477Z,4.85
2023-03-06T11:34:53.205Z,4.74
2023-03-06T11:37:30.988Z,4.78
2023-03-06T11:40:07.293Z,4.90
2023-03-06T11:42:40.126Z,4.86
2023-03-06T11:45:25.775Z,4.91
2023-03-06T11:48:01.647Z,5.21
2023-03-06T11:50:34.922Z,5.18
2023-03-06T11:53:04.657Z,5.33
2023-03-06T11:55:49.344Z,5.41
2023-03-06T11:58:51.821Z,5.35
2023-03-06T12:01:28.300Z,5.44
2023-03-06T12:04:08.328Z,5.41
2023-03-06T12:06:48.259Z,5.46
2023-03-06T12:09:35.188Z,5.48
2023-03-06T12:12:23.947Z,5.51
2023-03-06T12:15:07.755Z,5.81
2023-03-06T12:17:54.572Z,5.67
2023-03-06T12:20:37.669Z,5.98
2023-03-06T12:23:19.330Z,6.31
2023-03-06T12:25:54.058Z,6.33
2023-03-06T12:28:51.303Z,6.61
2023-03-06T12:31:27.810Z,6.38
2023-03-06T12:34:11.966Z,6.33
2023-03-06T12:36:54.601Z,6.73
2023-03-06T12:39:33.188Z,6.99
2023-03-06T12:42:23.081Z,7.16
2023-03-06T12:45:18.516Z,7.06
2023-03-06T12:47:48.418Z,6.69
2023-03-06T12:50:25.226Z,6.77
2023-03-06T12:52:54.893Z,6.88
2023-03-06T12:55:25.879Z,6.54
2023-03-06T12:57:53.960Z,6.72
2023-03-06T13:01:04.522Z,6.51
2023-03-06T13:03:48.541Z,6.34
2023-03-06T13:06:49.811Z,6.09
2023-03-06T13:09:29.097Z,6.03
2023-03-06T13:12:19.522Z,6.09
2023-03-06T13:14:56.170Z,6.16
2023-03-06T13:17:38.118Z,6.31
2023-03-06T13:20:31.561Z,6.44
2023-03-06T13:23:43.323Z,6.67
2023-03-06T13:26:32.695Z,6.46
2023-03-06T13:29:00.492Z,6.42
2023-03-06T13:31:30.106Z,6.38
2023-03-06T13:34:00.037Z,5.97
2023-03-06T13:36:32.598Z,5.98
2023-03-06T13:39:09.767Z,6.01
2023-03-06T13:41:58.898Z,6.31
2023-03-06T13:44:49.595Z,6.41
2023-03-06T13:48:09.740Z,6.74
2023-03-06T13:50:38.236Z,7.33
2023-03-06T13:53:49.402Z,7.50
2023-03-06T13:56:34.248Z,7.79
2023-03-06T13:59:20.150Z,7.88
2023-03-06T14:02:00.146Z,7.32
2023-03-06T14:04:54.346Z,6.88
2023-03-06T14:07:27.358Z,6.73
2023-03-06T14:10:10.641Z,6.83
2023-03-06T14:12:43.215Z,7.26
2023-03-06T14:15:20.363Z,7.27
2023-03-06T14:17:58.124Z,7.33
2023-03-06T14:20:34.132Z,7.11
2023-03-06T14:23:27.260Z,7.09
2023-03-06T14:26:03.427Z,7.48
2023-03-06T14:28:34.272Z,7.12
2023-03-06T14:31:04.482Z,7.08
2023-03-06T14:33:35.681Z,6.77
2023-03-06T14:36:09.555Z,6.59
2023-03-06T14:38:43.766Z,6.16
2023-03-06T14:41:13.164Z,5.72
2023-03-06T14:43:43.280Z,5.61
2023-03-06T14:46:20.588Z,5.47
2023-03-06T14:48:49.201Z,5.47
2023-03-06T14:51:19.366Z,5.27
2023-03-06T14:53:49.828Z,5.26
2023-03-06T14:56:20.212Z,5.20
2023-03-06T14:59:00.363Z,5.37
2023-03-06T15:01:32.439Z,5.59
2023-03-06T15:04:01.973Z,5.83
2023-03-06T15:06:34.617Z,5.76
2023-03-06T15:09:07.711Z,5.76
2023-03-06T15:11:56.776Z,5.59
2023-03-06T15:14:32.874Z,5.69
2023-03-06T15:17:22.603Z,5.61
2023-03-06T15:19:51.864Z,5.53
2023-03-06T15:22:28.191Z,5.48
2023-03-06T15:25:15.701Z,5.56
2023-03-06T15:27:49.658Z,5.60
2023-03-06T15:30:29.130Z,5.60
2023-03-06T15:33:10.647Z,5.57
2023-03-06T15:35:39.512Z,5.57
2023-03-06T15:38:24.773Z,5.71
2023-03-06T15:40:57.833Z,5.72
2023-03-06T15:43:26.042Z,5.78
2023-03-06T15:46:00.097Z,5.77
2023-03-06T15:48:28.737Z,5.80
2023-03-06T15:50:56.516Z,5.75
2023-03-06T15:53:24.302Z,5.63
2023-03-06T15:55:53.021Z,5.62
2023-03-06T15:58:26.604Z,5.52
2023-03-06T16:00:55.729Z,5.52
2023-03-06T16:03:23.477Z,5.41
2023-03-06T16:05:51.622Z,5.35
2023-03-06T16:08:22.102Z,5.36
2023-03-06T16:10:51.421Z,5.33
2023-03-06T16:13:26.600Z,5.30
2023-03-06T16:15:56.314Z,5.22
2023-03-06T16:18:24.084Z,5.16
2023-03-06T16:20:51.812Z,5.17
2023-03-06T16:23:19.494Z,5.15
2023-03-06T16:25:49.919Z,5.14
2023-03-06T16:28:18.440Z,5.07
2023-03-06T16:31:18.600Z,5.00
2023-03-06T16:33:46.640Z,4.96
2023-03-06T16:36:17.519Z,4.88
2023-03-06T16:38:45.305Z,4.81
2023-03-06T16:41:13.058Z,4.73
2023-03-06T16:43:40.963Z,4.64
2023-03-06T16:46:15.997Z,4.56
2023-03-06T16:48:45.473Z,4.50
2023-03-06T16:51:16.421Z,4.46
2023-03-06T16:53:44.594Z,4.38
2023-03-06T16:56:13.678Z,4.31
2023-03-06T16:58:41.945Z,4.24
2023-03-06T17:01:10.693Z,4.19
2023-03-06T17:03:40.021Z,4.12
2023-03-06T17:06:16.046Z,4.06
2023-03-06T17:08:44.254Z,3.94
2023-03-06T17:11:12.385Z,3.86
2023-03-06T17:13:40.472Z,3.78
2023-03-06T17:16:09.643Z,3.76
2023-03-06T17:18:37.437Z,3.69
2023-03-06T17:21:05.559Z,3.65
2023-03-06T17:23:34.653Z,3.60
2023-03-06T17:26:07.555Z,3.53
2023-03-06T17:28:35.808Z,3.47
2023-03-06T17:31:11.454Z,3.46
2023-03-06T17:33:39.233Z,3.40
2023-03-06T17:36:07.857Z,3.27
2023-03-06T17:38:37.221Z,3.22
2023-03-06T17:41:06.800Z,3.32
2023-03-06T17:43:34.744Z,3.23
2023-03-06T17:46:06.989Z,3.14
2023-03-06T17:48:35.110Z,3.09
2023-03-06T17:51:04.001Z,3.04
2023-03-06T17:53:32.077Z,2.99
2023-03-06T17:56:03.284Z,2.94
2023-03-06T17:58:31.097Z,2.95
2023-03-06T18:00:59.253Z,2.92
2023-03-06T18:03:27.829Z,2.84
2023-03-06T18:06:03.416Z,2.83
2023-03-06T18:08:32.019Z,2.94
2023-03-06T18:11:03.576Z,2.87
2023-03-06T18:13:31.743Z,2.84
2023-03-06T18:15:59.772Z,2.80
2023-03-06T18:18:28.676Z,2.74
2023-03-06T18:20:56.463Z,2.78
2023-03-06T18:23:24.751Z,2.66
2023-03-06T18:25:52.627Z,2.65
2023-03-06T18:28:21.925Z,2.72
2023-03-06T18:30:49.642Z,2.65
2023-03-06T18:33:17.421Z,2.58
2023-03-06T18:35:45.276Z,2.54
2023-03-06T18:38:13.007Z,2.51
2023-03-06T18:40:42.564Z,2.49
2023-03-06T18:43:10.260Z,2.52
2023-03-06T18:45:39.350Z,2.50
2023-03-06T18:48:07.415Z,2.48
2023-03-06T18:50:35.927Z,2.50
2023-03-06T18:53:03.746Z,2.52
2023-03-06T18:55:31.466Z,2.50
2023-03-06T18:57:59.197Z,2.49
2023-03-06T19:00:27.274Z,2.48
2023-03-06T19:02:56.503Z,2.51
2023-03-06T19:05:24.225Z,2.51
2023-03-06T19:07:52.273Z,2.55
2023-03-06T19:10:20.008Z,2.53
2023-03-06T19:12:47.805Z,2.57
2023-03-06T19:15:15.603Z,2.53
2023-03-06T19:17:43.321Z,2.52
2023-03-06T19:20:13.730Z,2.50
2023-03-06T19:22:41.446Z,2.57
2023-03-06T19:25:10.089Z,2.51
2023-03-06T19:27:39.060Z,2.51
2023-03-06T19:30:07.912Z,2.48
2023-03-06T19:32:35.703Z,2.43
2023-03-06T19:35:03.612Z,2.42
2023-03-06T19:37:33.034Z,2.40
2023-03-06T19:40:02.544Z,2.38
2023-03-06T19:42:31.026Z,2.35
2023-03-06T19:44:58.813Z,2.35
2023-03-06T19:47:26.495Z,2.35
2023-03-06T19:49:54.190Z,2.36
2023-03-06T19:52:23.803Z,2.33
2023-03-06T19:54:53.257Z,2.35
2023-03-06T19:57:21.600Z,2.36
2023-03-06T19:59:51.204Z,2.36
2023-03-06T20:02:26.255Z,2.34
2023-03-06T20:04:54.289Z,2.35
2023-03-06T20:07:22.196Z,2.35
2023-03-06T20:09:50.100Z,2.38
2023-03-06T20:12:19.182Z,2.39
2023-03-06T20:14:47.017Z,2.38
2023-03-06T20:17:14.718Z,2.40
2023-03-06T20:19:42.719Z,2.39
2023-03-06T20:22:10.383Z,2.43
2023-03-06T20:24:39.093Z,2.42
2023-03-06T20:27:06.867Z,2.39
2023-03-06T20:29:35.957Z,2.34
2023-03-06T20:32:03.792Z,2.32
2023-03-06T20:34:31.849Z,2.34
2023-03-06T20:36:59.566Z,2.37
2023-03-06T20:39:27.280Z,2.37
2023-03-06T20:41:55.097Z,2.34
2023-03-06T20:44:23.051Z,2.33
2023-03-06T20:46:52.847Z,2.34
2023-03-06T20:49:21.059Z,2.34
2023-03-06T20:51:49.886Z,2.34
2023-03-06T20:54:17.937Z,2.34
2023-03-06T20:56:48.907Z,2.32
2023-03-06T20:59:17.261Z,2.34
2023-03-06T21:01:47.854Z,2.39
2023-03-06T21:04:17.286Z,2.41
2023-03-06T21:06:46.759Z,2.36
2023-03-06T21:09:16.265Z,2.30
2023-03-06T21:11:44.152Z,2.27
2023-03-06T21:14:14.859Z,2.27
2023-03-06T21:16:43.077Z,2.28
2023-03-06T21:19:10.911Z,2.25
2023-03-06T21:21:40.013Z,2.30
2023-03-06T21:24:07.977Z,2.26
2023-03-06T21:26:35.796Z,2.25
2023-03-06T21:29:03.987Z,2.24
2023-03-06T21:31:33.303Z,2.23
2023-03-06T21:34:03.548Z,2.19
2023-03-06T21:36:32.242Z,2.18
2023-03-06T21:39:01.293Z,2.17
2023-03-06T21:41:30.359Z,2.19
2023-03-06T21:43:59.543Z,2.17
2023-03-06T21:46:28.357Z,2.20
2023-03-06T21:48:56.693Z,2.17
2023-03-06T21:51:26.598Z,2.18
2023-03-06T21:53:55.798Z,2.15
2023-03-06T21:56:28.209Z,2.11
2023-03-06T21:58:56.353Z,2.10
2023-03-06T22:01:26.832Z,2.07
2023-03-06T22:03:55.175Z,2.04
2023-03-06T22:06:25.345Z,2.00
2023-03-06T22:08:54.963Z,1.96
2023-03-06T22:11:25.832Z,1.99
2023-03-06T22:13:54.053Z,1.99
2023-03-06T22:16:21.918Z,1.96
2023-03-06T22:18:51.699Z,1.92
2023-03-06T22:21:21.246Z,1.95
2023-03-06T22:23:50.589Z,1.88
2023-03-06T22:26:18.603Z,1.92
2023-03-06T22:28:47.751Z,1.93
2023-03-06T22:31:17.450Z,2.03
2023-03-06T22:33:45.699Z,2.01
2023-03-06T22:36:15.322Z,2.00
2023-03-06T22:38:44.946Z,2.01
2023-03-06T22:41:14.066Z,2.05
2023-03-06T22:43:42.268Z,2.11
2023-03-06T22:46:13.223Z,2.10
2023-03-06T22:48:41.870Z,2.11
2023-03-06T22:51:12.778Z,2.13
2023-03-06T22:53:40.913Z,2.15
2023-03-06T22:56:11.895Z,2.15
2023-03-06T22:58:40.290Z,2.18
2023-03-06T23:01:09.687Z,2.21
2023-03-06T23:03:42.112Z,2.25
2023-03-06T23:06:12.135Z,2.27
2023-03-06T23:08:40.250Z,2.29
2023-03-06T23:11:09.974Z,2.24
2023-03-06T23:13:56.920Z,2.24
2023-03-06T23:16:43.207Z,2.27
2023-03-06T23:19:30.674Z,2.21
2023-03-06T23:22:17.018Z,2.10
2023-03-06T23:25:03.011Z,2.06
2023-03-06T23:27:30.674Z,2.01
2023-03-06T23:29:58.987Z,2.00
2023-03-06T23:32:26.984Z,1.96
2023-03-06T23:34:56.083Z,2.04
2023-03-06T23:37:23.766Z,2.04
2023-03-06T23:39:52.026Z,2.10
2023-03-06T23:42:20.123Z,2.09
2023-03-06T23:44:47.874Z,2.08
2023-03-06T23:47:17.111Z,2.13
2023-03-06T23:49:44.964Z,2.12
2023-03-06T23:52:14.054Z,2.13
2023-03-06T23:54:41.936Z,2.11
2023-03-06T23:57:09.929Z,2.12
2023-03-06T23:59:37.783Z,2.13
